createdAt,value
2023-02-26T00:00:41.794Z,986.42
2023-02-26T00:01:41.817Z,986.44
2023-02-26T00:02:41.751Z,986.45
2023-02-26T00:03:41.745Z,986.45
2023-02-26T00:04:41.730Z,986.44
2023-02-26T00:05:42.132Z,986.50
2023-02-26T00:06:41.747Z,986.47
2023-02-26T00:07:41.711Z,986.54
2023-02-26T00:08:41.702Z,986.57
2023-02-26T00:09:41.724Z,986.53
2023-02-26T00:10:41.680Z,986.58
2023-02-26T00:11:41.687Z,986.63
2023-02-26T00:12:41.676Z,986.58
2023-02-26T00:13:41.660Z,986.56
2023-02-26T00:14:41.641Z,986.59
2023-02-26T00:15:41.651Z,986.61
2023-02-26T00:16:41.663Z,986.60
2023-02-26T00:17:41.609Z,986.60
2023-02-26T00:18:41.592Z,986.65
2023-02-26T00:19:41.598Z,986.67
2023-02-26T00:20:41.576Z,986.63
2023-02-26T00:21:41.586Z,986.68
2023-02-26T00:22:41.555Z,986.65
2023-02-26T00:23:41.570Z,986.64
2023-02-26T00:24:41.540Z,986.62
2023-02-26T00:25:41.540Z,986.65
2023-02-26T00:26:41.550Z,986.67
2023-02-26T00:27:41.525Z,986.66
2023-02-26T00:28:41.507Z,986.67
2023-02-26T00:29:41.496Z,986.69
2023-02-26T00:30:41.527Z,986.71
2023-02-26T00:31:41.577Z,986.68
2023-02-26T00:32:41.526Z,986.70
2023-02-26T00:33:41.462Z,986.70
2023-02-26T00:34:41.490Z,986.75
2023-02-26T00:35:41.464Z,986.78
2023-02-26T00:36:41.432Z,986.77
2023-02-26T00:37:41.420Z,986.76
2023-02-26T00:38:41.424Z,986.83
2023-02-26T00:39:41.405Z,986.76
2023-02-26T00:40:41.403Z,986.80
2023-02-26T00:41:42.448Z,986.82
2023-02-26T00:42:41.391Z,986.85
2023-02-26T00:43:41.360Z,986.79
2023-02-26T00:44:41.357Z,986.77
2023-02-26T00:45:41.351Z,986.75
2023-02-26T00:46:41.348Z,986.78
2023-02-26T00:47:41.335Z,986.81
2023-02-26T00:48:41.346Z,986.73
2023-02-26T00:49:41.313Z,986.74
2023-02-26T00:50:41.308Z,986.69
2023-02-26T00:51:41.310Z,986.75
2023-02-26T00:52:41.282Z,986.81
2023-02-26T00:53:41.293Z,986.80
2023-02-26T00:54:41.271Z,986.83
2023-02-26T00:55:41.252Z,986.82
2023-02-26T00:56:41.282Z,986.80
2023-02-26T00:57:41.243Z,986.84
2023-02-26T00:58:41.241Z,986.86
2023-02-26T00:59:41.221Z,986.85
2023-02-26T01:00:41.231Z,986.88
2023-02-26T01:01:41.253Z,986.85
2023-02-26T01:02:41.220Z,986.93
2023-02-26T01:03:41.240Z,986.90
2023-02-26T01:04:41.179Z,986.90
2023-02-26T01:05:41.200Z,986.88
2023-02-26T01:06:41.145Z,986.88
2023-02-26T01:07:41.139Z,986.92
2023-02-26T01:08:41.158Z,986.93
2023-02-26T01:09:41.119Z,986.93
2023-02-26T01:10:41.112Z,986.94
2023-02-26T01:11:41.102Z,987.01
2023-02-26T01:12:41.102Z,986.93
2023-02-26T01:13:41.100Z,986.98
2023-02-26T01:14:41.078Z,986.98
2023-02-26T01:15:41.095Z,986.94
2023-02-26T01:16:41.052Z,986.92
2023-02-26T01:17:41.048Z,986.98
2023-02-26T01:18:41.069Z,986.91
2023-02-26T01:19:41.154Z,986.98
2023-02-26T01:20:41.051Z,986.93
2023-02-26T01:21:41.009Z,986.97
2023-02-26T01:22:41.002Z,986.98
2023-02-26T01:23:41.002Z,987.00
2023-02-26T01:24:41.010Z,986.96
2023-02-26T01:25:40.970Z,986.92
2023-02-26T01:26:40.971Z,986.99
2023-02-26T01:27:40.948Z,986.99
2023-02-26T01:28:40.938Z,986.97
2023-02-26T01:29:40.977Z,987.03
2023-02-26T01:30:40.954Z,987.04
2023-02-26T01:31:41.119Z,987.09
2023-02-26T01:32:40.951Z,987.07
2023-02-26T01:33:40.895Z,987.10
2023-02-26T01:34:40.878Z,987.08
2023-02-26T01:35:40.897Z,987.13
2023-02-26T01:36:40.877Z,987.12
2023-02-26T01:37:40.866Z,987.07
2023-02-26T01:38:40.853Z,987.06
2023-02-26T01:39:40.847Z,987.14
2023-02-26T01:40:40.825Z,987.07
2023-02-26T01:41:40.816Z,987.11
2023-02-26T01:42:40.817Z,987.06
2023-02-26T01:43:40.804Z,987.09
2023-02-26T01:44:41.791Z,987.09
2023-02-26T01:45:40.773Z,987.06
2023-02-26T01:46:40.796Z,987.12
2023-02-26T01:47:40.761Z,987.11
2023-02-26T01:48:40.768Z,987.10
2023-02-26T01:49:40.754Z,987.11
2023-02-26T01:50:40.731Z,987.14
2023-02-26T01:51:40.721Z,987.15
2023-02-26T01:52:40.718Z,987.17
2023-02-26T01:53:40.729Z,987.12
2023-02-26T01:54:40.717Z,987.16
2023-02-26T01:55:40.680Z,987.14
2023-02-26T01:56:40.667Z,987.19
2023-02-26T01:57:40.657Z,987.18
2023-02-26T01:58:40.676Z,987.21
2023-02-26T01:59:40.641Z,987.18
2023-02-26T02:00:40.652Z,987.24
2023-02-26T02:01:40.636Z,987.23
2023-02-26T02:02:40.664Z,987.24
2023-02-26T02:03:40.681Z,987.27
2023-02-26T02:04:40.615Z,987.25
2023-02-26T02:05:40.580Z,987.21
2023-02-26T02:06:40.587Z,987.28
2023-02-26T02:07:40.581Z,987.26
2023-02-26T02:08:40.579Z,987.22
2023-02-26T02:09:40.555Z,987.24
2023-02-26T02:10:40.533Z,987.32
2023-02-26T02:11:40.523Z,987.23
2023-02-26T02:12:40.533Z,987.20
2023-02-26T02:13:40.508Z,987.21
2023-02-26T02:14:40.508Z,987.24
2023-02-26T02:15:40.481Z,987.29
2023-02-26T02:16:40.522Z,987.24
2023-02-26T02:17:40.514Z,987.28
2023-02-26T02:18:40.449Z,987.24
2023-02-26T02:19:40.443Z,987.30
2023-02-26T02:20:40.436Z,987.29
2023-02-26T02:21:40.429Z,987.26
2023-02-26T02:22:40.437Z,987.30
2023-02-26T02:23:40.404Z,987.35
2023-02-26T02:24:40.404Z,987.27
2023-02-26T02:25:40.390Z,987.28
2023-02-26T02:26:40.390Z,987.29
2023-02-26T02:27:40.378Z,987.29
2023-02-26T02:28:40.383Z,987.30
2023-02-26T02:29:40.349Z,987.35
2023-02-26T02:30:40.345Z,987.35
2023-02-26T02:31:40.445Z,987.31
2023-02-26T02:32:40.362Z,987.36
2023-02-26T02:33:40.328Z,987.33
2023-02-26T02:34:40.309Z,987.39
2023-02-26T02:35:40.284Z,987.43
2023-02-26T02:36:40.290Z,987.39
2023-02-26T02:37:40.278Z,987.43
2023-02-26T02:38:40.263Z,987.44
2023-02-26T02:39:40.254Z,987.47
2023-02-26T02:40:40.229Z,987.44
2023-02-26T02:41:40.228Z,987.42
2023-02-26T02:42:40.231Z,987.47
2023-02-26T02:43:40.214Z,987.50
2023-02-26T02:44:40.196Z,987.46
2023-02-26T02:45:40.332Z,987.51
2023-02-26T02:46:40.216Z,987.49
2023-02-26T02:47:40.178Z,987.53
2023-02-26T02:48:40.160Z,987.48
2023-02-26T02:49:40.160Z,987.52
2023-02-26T02:50:40.152Z,987.61
2023-02-26T02:51:40.155Z,987.54
2023-02-26T02:52:40.123Z,987.58
2023-02-26T02:53:40.127Z,987.70
2023-02-26T02:54:40.116Z,987.59
2023-02-26T02:55:40.102Z,987.64
2023-02-26T02:56:40.102Z,987.62
2023-02-26T02:57:40.085Z,987.61
2023-02-26T02:58:40.072Z,987.66
2023-02-26T02:59:40.061Z,987.63
2023-02-26T03:00:40.066Z,987.66
2023-02-26T03:01:40.067Z,987.67
2023-02-26T03:02:40.099Z,987.66
2023-02-26T03:03:40.022Z,987.65
2023-02-26T03:04:40.018Z,987.71
2023-02-26T03:05:39.997Z,987.65
2023-02-26T03:06:40.020Z,987.65
2023-02-26T03:07:40.019Z,987.67
2023-02-26T03:08:39.957Z,987.70
2023-02-26T03:09:39.974Z,987.77
2023-02-26T03:10:39.956Z,987.70
2023-02-26T03:11:39.946Z,987.73
2023-02-26T03:12:39.956Z,987.74
2023-02-26T03:13:39.922Z,987.71
2023-02-26T03:14:39.934Z,987.73
2023-02-26T03:15:39.909Z,987.76
2023-02-26T03:16:40.014Z,987.74
2023-02-26T03:17:39.889Z,987.72
2023-02-26T03:18:39.883Z,987.78
2023-02-26T03:19:39.899Z,987.76
2023-02-26T03:20:39.856Z,987.79
2023-02-26T03:21:39.860Z,987.77
2023-02-26T03:22:39.846Z,987.87
2023-02-26T03:23:39.884Z,987.81
2023-02-26T03:24:39.832Z,987.82
2023-02-26T03:25:39.826Z,987.94
2023-02-26T03:26:39.816Z,987.92
2023-02-26T03:27:39.792Z,987.91
2023-02-26T03:28:39.787Z,987.93
2023-02-26T03:29:39.784Z,987.98
2023-02-26T03:30:39.863Z,987.90
2023-02-26T03:31:39.785Z,987.96
2023-02-26T03:32:39.889Z,987.96
2023-02-26T03:33:39.764Z,987.94
2023-02-26T03:34:39.740Z,988.04
2023-02-26T03:35:39.723Z,988.03
2023-02-26T03:36:39.727Z,988.00
2023-02-26T03:37:39.709Z,988.06
2023-02-26T03:38:39.712Z,988.01
2023-02-26T03:39:39.688Z,988.14
2023-02-26T03:40:39.697Z,988.20
2023-02-26T03:41:39.674Z,988.23
2023-02-26T03:42:39.645Z,988.19
2023-02-26T03:43:39.670Z,988.24
2023-02-26T03:44:39.640Z,988.29
2023-02-26T03:45:39.698Z,988.25
2023-02-26T03:46:39.628Z,988.25
2023-02-26T03:47:39.624Z,988.24
2023-02-26T03:48:39.610Z,988.23
2023-02-26T03:49:39.582Z,988.33
2023-02-26T03:50:39.580Z,988.26
2023-02-26T03:51:39.589Z,988.30
2023-02-26T03:52:39.546Z,988.31
2023-02-26T03:53:39.546Z,988.31
2023-02-26T03:54:39.537Z,988.30
2023-02-26T03:55:39.536Z,988.28
2023-02-26T03:56:39.529Z,988.30
2023-02-26T03:57:39.507Z,988.30
2023-02-26T03:58:40.516Z,988.32
2023-02-26T03:59:39.492Z,988.31
2023-02-26T04:00:42.065Z,988.30
2023-02-26T04:01:39.469Z,988.38
2023-02-26T04:02:39.475Z,988.43
2023-02-26T04:04:11.415Z,988.46
2023-02-26T04:04:39.521Z,988.47
2023-02-26T04:05:39.449Z,988.36
2023-02-26T04:06:39.435Z,988.47
2023-02-26T04:07:39.414Z,988.48
2023-02-26T04:08:39.402Z,988.45
2023-02-26T04:09:39.407Z,988.45
2023-02-26T04:10:39.381Z,988.46
2023-02-26T04:11:39.390Z,988.47
2023-02-26T04:12:40.366Z,988.54
2023-02-26T04:13:39.403Z,988.51
2023-02-26T04:14:39.338Z,988.53
2023-02-26T04:15:39.332Z,988.62
2023-02-26T04:16:39.385Z,988.61
2023-02-26T04:17:39.309Z,988.65
2023-02-26T04:18:39.337Z,988.72
2023-02-26T04:19:39.300Z,988.65
2023-02-26T04:20:39.294Z,988.66
2023-02-26T04:21:39.332Z,988.68
2023-02-26T04:22:39.302Z,988.66
2023-02-26T04:23:39.267Z,988.66
2023-02-26T04:24:39.250Z,988.75
2023-02-26T04:25:39.253Z,988.69
2023-02-26T04:26:39.244Z,988.72
2023-02-26T04:27:39.242Z,988.69
2023-02-26T04:28:39.211Z,988.74
2023-02-26T04:29:39.200Z,988.71
2023-02-26T04:30:39.213Z,988.69
2023-02-26T04:31:39.245Z,988.69
2023-02-26T04:32:39.183Z,988.72
2023-02-26T04:33:39.177Z,988.70
2023-02-26T04:34:39.163Z,988.68
2023-02-26T04:35:39.144Z,988.70
2023-02-26T04:36:39.126Z,988.69
2023-02-26T04:37:39.126Z,988.71
2023-02-26T04:38:39.129Z,988.72
2023-02-26T04:39:39.117Z,988.78
2023-02-26T04:40:39.117Z,988.78
2023-02-26T04:41:39.131Z,988.79
2023-02-26T04:42:39.107Z,988.87
2023-02-26T04:43:39.114Z,988.93
2023-02-26T04:44:39.152Z,988.89
2023-02-26T04:45:39.113Z,988.89
2023-02-26T04:46:39.072Z,988.95
2023-02-26T04:47:39.031Z,988.93
2023-02-26T04:48:39.003Z,988.96
2023-02-26T04:49:39.061Z,988.95
2023-02-26T04:50:39.002Z,988.96
2023-02-26T04:51:38.978Z,989.06
2023-02-26T04:52:38.976Z,988.95
2023-02-26T04:53:38.972Z,989.05
2023-02-26T04:54:38.961Z,989.02
2023-02-26T04:55:38.964Z,989.07
2023-02-26T04:56:38.939Z,989.05
2023-02-26T04:57:38.925Z,989.01
2023-02-26T04:58:38.925Z,989.02
2023-02-26T04:59:38.928Z,989.05
2023-02-26T05:00:38.914Z,988.97
2023-02-26T05:01:38.922Z,989.02
2023-02-26T05:02:38.882Z,989.08
2023-02-26T05:03:38.933Z,989.05
2023-02-26T05:04:38.937Z,989.08
2023-02-26T05:05:38.843Z,989.12
2023-02-26T05:06:38.852Z,989.12
2023-02-26T05:07:38.847Z,989.12
2023-02-26T05:08:38.834Z,989.13
2023-02-26T05:09:38.873Z,989.10
2023-02-26T05:10:38.805Z,989.14
2023-02-26T05:11:38.784Z,989.16
2023-02-26T05:12:38.811Z,989.22
2023-02-26T05:13:38.776Z,989.27
2023-02-26T05:14:38.781Z,989.26
2023-02-26T05:15:38.792Z,989.26
2023-02-26T05:16:38.759Z,989.28
2023-02-26T05:17:38.770Z,989.26
2023-02-26T05:18:38.732Z,989.34
2023-02-26T05:19:38.731Z,989.28
2023-02-26T05:20:38.717Z,989.29
2023-02-26T05:21:38.729Z,989.33
2023-02-26T05:22:38.716Z,989.33
2023-02-26T05:23:38.691Z,989.35
2023-02-26T05:24:38.691Z,989.37
2023-02-26T05:25:38.673Z,989.37
2023-02-26T05:26:38.666Z,989.40
2023-02-26T05:27:38.655Z,989.40
2023-02-26T05:28:38.649Z,989.38
2023-02-26T05:29:38.648Z,989.37
2023-02-26T05:30:38.678Z,989.40
2023-02-26T05:31:38.712Z,989.40
2023-02-26T05:32:38.621Z,989.40
2023-02-26T05:33:38.599Z,989.45
2023-02-26T05:34:38.579Z,989.41
2023-02-26T05:35:38.588Z,989.42
2023-02-26T05:36:38.584Z,989.39
2023-02-26T05:37:38.580Z,989.49
2023-02-26T05:38:38.540Z,989.52
2023-02-26T05:39:38.526Z,989.53
2023-02-26T05:40:38.542Z,989.50
2023-02-26T05:41:38.506Z,989.52
2023-02-26T05:42:38.531Z,989.55
2023-02-26T05:43:38.511Z,989.58
2023-02-26T05:44:38.488Z,989.64
2023-02-26T05:45:38.490Z,989.59
2023-02-26T05:46:38.530Z,989.66
2023-02-26T05:47:38.466Z,989.61
2023-02-26T05:48:38.456Z,989.60
2023-02-26T05:49:38.457Z,989.70
2023-02-26T05:50:38.443Z,989.67
2023-02-26T05:51:38.410Z,989.58
2023-02-26T05:52:38.409Z,989.68
2023-02-26T05:53:38.405Z,989.72
2023-02-26T05:54:38.384Z,989.71
2023-02-26T05:55:38.422Z,989.79
2023-02-26T05:56:38.369Z,989.81
2023-02-26T05:57:38.364Z,989.80
2023-02-26T05:58:38.376Z,989.83
2023-02-26T05:59:38.334Z,989.81
2023-02-26T06:00:38.362Z,989.86
2023-02-26T06:01:38.347Z,989.90
2023-02-26T06:02:38.368Z,989.90
2023-02-26T06:03:38.313Z,989.90
2023-02-26T06:04:38.283Z,990.00
2023-02-26T06:05:38.308Z,990.02
2023-02-26T06:06:38.281Z,990.05
2023-02-26T06:07:38.263Z,990.01
2023-02-26T06:08:38.245Z,990.04
2023-02-26T06:09:38.233Z,990.04
2023-02-26T06:10:38.249Z,990.07
2023-02-26T06:11:38.238Z,990.13
2023-02-26T06:12:38.218Z,990.17
2023-02-26T06:13:38.901Z,990.14
2023-02-26T06:14:38.209Z,990.13
2023-02-26T06:15:38.199Z,990.18
2023-02-26T06:16:38.238Z,990.23
2023-02-26T06:17:40.608Z,990.23
2023-02-26T06:18:39.177Z,990.23
2023-02-26T06:19:38.161Z,990.25
2023-02-26T06:20:38.131Z,990.26
2023-02-26T06:21:38.120Z,990.31
2023-02-26T06:22:38.133Z,990.32
2023-02-26T06:23:38.109Z,990.22
2023-02-26T06:24:38.105Z,990.33
2023-02-26T06:25:39.087Z,990.25
2023-02-26T06:26:38.086Z,990.33
2023-02-26T06:27:38.072Z,990.42
2023-02-26T06:28:38.069Z,990.33
2023-02-26T06:29:38.073Z,990.38
2023-02-26T06:30:38.165Z,990.44
2023-02-26T06:31:38.104Z,990.40
2023-02-26T06:32:38.116Z,990.44
2023-02-26T06:33:38.021Z,990.47
2023-02-26T06:34:38.007Z,990.54
2023-02-26T06:35:38.032Z,990.57
2023-02-26T06:36:37.991Z,990.52
2023-02-26T06:37:37.977Z,990.57
2023-02-26T06:38:38.134Z,990.66
2023-02-26T06:39:37.961Z,990.61
2023-02-26T06:40:37.972Z,990.64
2023-02-26T06:41:37.953Z,990.68
2023-02-26T06:42:37.941Z,990.66
2023-02-26T06:43:37.934Z,990.72
2023-02-26T06:44:37.914Z,990.72
2023-02-26T06:45:37.960Z,990.78
2023-02-26T06:46:37.914Z,990.77
2023-02-26T06:47:37.892Z,990.80
2023-02-26T06:48:37.886Z,990.76
2023-02-26T06:49:37.869Z,990.77
2023-02-26T06:50:37.860Z,990.83
2023-02-26T06:51:37.874Z,990.82
2023-02-26T06:52:37.842Z,990.81
2023-02-26T06:53:37.837Z,990.94
2023-02-26T06:54:37.921Z,990.90
2023-02-26T06:55:37.828Z,990.92
2023-02-26T06:56:37.833Z,991.03
2023-02-26T06:57:37.797Z,991.04
2023-02-26T06:58:37.780Z,991.08
2023-02-26T06:59:37.799Z,991.07
2023-02-26T07:00:37.782Z,990.99
2023-02-26T07:01:37.760Z,991.07
2023-02-26T07:02:37.814Z,991.14
2023-02-26T07:03:37.770Z,991.08
2023-02-26T07:04:37.733Z,991.15
2023-02-26T07:05:37.721Z,991.24
2023-02-26T07:06:37.711Z,991.22
2023-02-26T07:07:37.705Z,991.24
2023-02-26T07:08:37.705Z,991.32
2023-02-26T07:09:37.689Z,991.27
2023-02-26T07:10:37.683Z,991.41
2023-02-26T07:11:37.647Z,991.45
2023-02-26T07:12:38.662Z,991.42
2023-02-26T07:13:37.640Z,991.43
2023-02-26T07:14:37.624Z,991.55
2023-02-26T07:15:37.665Z,991.48
2023-02-26T07:16:37.644Z,991.52
2023-02-26T07:17:37.613Z,991.53
2023-02-26T07:18:37.593Z,991.52
2023-02-26T07:19:37.586Z,991.53
2023-02-26T07:20:37.591Z,991.58
2023-02-26T07:21:37.586Z,991.49
2023-02-26T07:22:37.564Z,991.55
2023-02-26T07:23:37.552Z,991.54
2023-02-26T07:24:37.552Z,991.59
2023-02-26T07:25:37.530Z,991.66
2023-02-26T07:26:37.524Z,991.63
2023-02-26T07:27:37.513Z,991.61
2023-02-26T07:28:37.496Z,991.70
2023-02-26T07:29:37.501Z,991.66
2023-02-26T07:30:37.517Z,991.62
2023-02-26T07:31:37.621Z,991.71
2023-02-26T07:32:37.459Z,991.66
2023-02-26T07:33:37.448Z,991.63
2023-02-26T07:34:37.436Z,991.67
2023-02-26T07:35:37.427Z,991.63
2023-02-26T07:36:37.437Z,991.55
2023-02-26T07:37:37.418Z,991.96
2023-02-26T07:38:37.419Z,991.73
2023-02-26T07:39:37.409Z,991.70
2023-02-26T07:40:37.458Z,991.61
2023-02-26T07:41:37.368Z,991.78
2023-02-26T07:42:37.368Z,991.68
2023-02-26T07:43:37.354Z,991.68
2023-02-26T07:44:37.350Z,991.62
2023-02-26T07:45:37.341Z,991.73
2023-02-26T07:46:37.369Z,991.60
2023-02-26T07:47:37.310Z,991.68
2023-02-26T07:48:37.322Z,991.72
2023-02-26T07:49:37.290Z,991.63
2023-02-26T07:50:37.313Z,991.66
2023-02-26T07:51:37.275Z,991.64
2023-02-26T07:52:37.274Z,991.72
2023-02-26T07:53:37.244Z,991.74
2023-02-26T07:54:37.253Z,991.74
2023-02-26T07:55:37.258Z,991.79
2023-02-26T07:56:37.236Z,991.75
2023-02-26T07:57:37.238Z,991.78
2023-02-26T07:58:37.209Z,991.68
2023-02-26T07:59:37.202Z,991.91
2023-02-26T08:00:37.183Z,991.96
2023-02-26T08:01:37.261Z,991.90
2023-02-26T08:02:37.185Z,991.76
2023-02-26T08:03:37.159Z,991.92
2023-02-26T08:04:37.264Z,991.89
2023-02-26T08:05:37.150Z,991.90
2023-02-26T08:06:37.137Z,991.89
2023-02-26T08:07:37.123Z,991.94
2023-02-26T08:08:37.125Z,991.90
2023-02-26T08:09:37.128Z,991.98
2023-02-26T08:10:37.104Z,991.96
2023-02-26T08:11:37.083Z,992.01
2023-02-26T08:12:37.079Z,991.90
2023-02-26T08:13:37.081Z,991.94
2023-02-26T08:14:37.072Z,991.91
2023-02-26T08:15:37.122Z,991.94
2023-02-26T08:16:37.037Z,991.91
2023-02-26T08:17:37.048Z,991.94
2023-02-26T08:18:37.017Z,991.98
2023-02-26T08:19:37.021Z,992.01
2023-02-26T08:20:37.005Z,992.06
2023-02-26T08:21:37.011Z,992.01
2023-02-26T08:22:36.981Z,991.98
2023-02-26T08:23:36.959Z,992.03
2023-02-26T08:24:36.961Z,992.15
2023-02-26T08:25:36.984Z,992.12
2023-02-26T08:26:36.962Z,992.11
2023-02-26T08:27:36.958Z,992.11
2023-02-26T08:28:36.920Z,992.30
2023-02-26T08:29:36.920Z,992.17
2023-02-26T08:30:36.966Z,992.22
2023-02-26T08:31:37.054Z,992.29
2023-02-26T08:32:36.939Z,992.27
2023-02-26T08:33:36.899Z,992.30
2023-02-26T08:34:36.883Z,992.33
2023-02-26T08:35:36.861Z,992.36
2023-02-26T08:36:36.843Z,992.40
2023-02-26T08:37:36.837Z,992.33
2023-02-26T08:38:36.894Z,992.40
2023-02-26T08:39:36.846Z,992.40
2023-02-26T08:40:36.810Z,992.48
2023-02-26T08:41:36.794Z,992.43
2023-02-26T08:42:37.785Z,992.46
2023-02-26T08:43:36.797Z,992.56
2023-02-26T08:44:36.789Z,992.54
2023-02-26T08:45:36.745Z,992.59
2023-02-26T08:46:36.779Z,992.58
2023-02-26T08:47:39.558Z,992.54
2023-02-26T08:48:37.725Z,992.49
2023-02-26T08:49:36.725Z,992.59
2023-02-26T08:50:36.727Z,992.53
2023-02-26T08:51:36.712Z,992.63
2023-02-26T08:52:36.694Z,992.60
2023-02-26T08:53:36.692Z,992.65
2023-02-26T08:54:36.681Z,992.70
2023-02-26T08:55:36.684Z,992.71
2023-02-26T08:56:36.676Z,992.74
2023-02-26T08:57:36.690Z,992.67
2023-02-26T08:58:36.635Z,992.69
2023-02-26T08:59:36.630Z,992.77
2023-02-26T09:00:36.622Z,992.76
2023-02-26T09:01:36.808Z,992.80
2023-02-26T09:02:36.680Z,992.91
2023-02-26T09:03:36.586Z,992.90
2023-02-26T09:04:36.579Z,992.95
2023-02-26T09:05:36.565Z,992.99
2023-02-26T09:06:36.571Z,992.96
2023-02-26T09:07:36.563Z,993.02
2023-02-26T09:08:36.541Z,992.91
2023-02-26T09:09:36.521Z,992.96
2023-02-26T09:10:36.525Z,992.78
2023-02-26T09:11:36.502Z,992.89
2023-02-26T09:12:36.511Z,992.79
2023-02-26T09:13:36.509Z,992.83
2023-02-26T09:14:36.491Z,992.84
2023-02-26T09:15:36.467Z,992.86
2023-02-26T09:16:36.548Z,992.85
2023-02-26T09:17:36.459Z,992.95
2023-02-26T09:18:36.454Z,992.85
2023-02-26T09:19:36.484Z,992.80
2023-02-26T09:20:36.419Z,992.99
2023-02-26T09:21:36.409Z,992.82
2023-02-26T09:22:36.392Z,992.80
2023-02-26T09:23:36.383Z,992.89
2023-02-26T09:24:36.520Z,992.99
2023-02-26T09:25:36.384Z,992.91
2023-02-26T09:26:36.383Z,992.94
2023-02-26T09:27:36.403Z,993.13
2023-02-26T09:28:36.405Z,993.08
2023-02-26T09:29:36.381Z,993.11
2023-02-26T09:30:36.318Z,993.15
2023-02-26T09:31:36.453Z,993.12
2023-02-26T09:32:36.379Z,993.18
2023-02-26T09:33:36.295Z,993.10
2023-02-26T09:34:36.309Z,993.16
2023-02-26T09:35:36.280Z,993.09
2023-02-26T09:36:36.274Z,993.16
2023-02-26T09:37:36.265Z,992.97
2023-02-26T09:38:36.279Z,993.04
2023-02-26T09:39:36.236Z,993.01
2023-02-26T09:40:36.221Z,993.01
2023-02-26T09:41:36.204Z,992.94
2023-02-26T09:42:36.231Z,993.00
2023-02-26T09:43:36.188Z,993.01
2023-02-26T09:44:36.182Z,993.02
2023-02-26T09:45:36.229Z,993.09
2023-02-26T09:46:36.164Z,993.02
2023-02-26T09:47:36.154Z,993.09
2023-02-26T09:48:36.138Z,993.17
2023-02-26T09:49:36.129Z,993.16
2023-02-26T09:50:36.138Z,993.18
2023-02-26T09:51:36.103Z,993.24
2023-02-26T09:52:36.125Z,993.18
2023-02-26T09:53:36.091Z,993.43
2023-02-26T09:54:36.081Z,993.23
2023-02-26T09:55:36.089Z,993.30
2023-02-26T09:56:36.067Z,993.28
2023-02-26T09:57:36.068Z,993.34
2023-02-26T09:58:36.052Z,993.32
2023-02-26T09:59:36.055Z,993.35
2023-02-26T10:00:36.023Z,993.32
2023-02-26T10:01:36.080Z,993.34
2023-02-26T10:02:37.025Z,993.43
2023-02-26T10:03:36.002Z,993.39
2023-02-26T10:05:07.893Z,993.43
2023-02-26T10:05:35.973Z,993.48
2023-02-26T10:06:35.995Z,993.51
2023-02-26T10:07:35.969Z,993.51
2023-02-26T10:08:35.957Z,993.54
2023-02-26T10:09:35.977Z,993.57
2023-02-26T10:10:35.921Z,993.53
2023-02-26T10:11:36.914Z,993.55
2023-02-26T10:12:35.951Z,993.59
2023-02-26T10:13:40.473Z,993.61
2023-02-26T10:14:37.917Z,993.66
2023-02-26T10:15:35.904Z,993.61
2023-02-26T10:16:35.932Z,993.71
2023-02-26T10:17:35.877Z,993.65
2023-02-26T10:18:35.863Z,993.68
2023-02-26T10:19:35.862Z,993.76
2023-02-26T10:20:35.924Z,993.67
2023-02-26T10:21:35.856Z,993.78
2023-02-26T10:22:35.849Z,993.90
2023-02-26T10:23:35.813Z,993.77
2023-02-26T10:24:35.803Z,993.78
2023-02-26T10:25:35.794Z,993.80
2023-02-26T10:26:35.803Z,993.85
2023-02-26T10:27:35.777Z,993.91
2023-02-26T10:28:35.780Z,993.84
2023-02-26T10:29:35.753Z,993.83
2023-02-26T10:30:35.776Z,993.81
2023-02-26T10:31:35.778Z,993.97
2023-02-26T10:32:36.868Z,993.85
2023-02-26T10:33:35.735Z,993.80
2023-02-26T10:34:35.692Z,993.89
2023-02-26T10:35:35.679Z,993.93
2023-02-26T10:36:35.689Z,993.88
2023-02-26T10:37:35.663Z,993.89
2023-02-26T10:38:35.668Z,993.90
2023-02-26T10:39:35.649Z,993.92
2023-02-26T10:40:35.636Z,993.92
2023-02-26T10:41:35.658Z,993.89
2023-02-26T10:42:35.628Z,993.90
2023-02-26T10:43:35.612Z,993.94
2023-02-26T10:44:35.619Z,993.97
2023-02-26T10:45:35.618Z,994.00
2023-02-26T10:46:35.588Z,993.91
2023-02-26T10:47:35.584Z,993.96
2023-02-26T10:48:35.552Z,993.95
2023-02-26T10:49:35.572Z,993.93
2023-02-26T10:50:35.533Z,994.01
2023-02-26T10:51:35.525Z,994.02
2023-02-26T10:52:35.526Z,994.18
2023-02-26T10:53:35.523Z,994.08
2023-02-26T10:54:35.504Z,994.04
2023-02-26T10:55:35.514Z,994.08
2023-02-26T10:56:35.513Z,994.16
2023-02-26T10:57:35.465Z,994.13
2023-02-26T10:58:35.466Z,994.10
2023-02-26T10:59:35.453Z,994.12
2023-02-26T11:00:35.462Z,994.15
2023-02-26T11:01:35.457Z,994.11
2023-02-26T11:02:35.473Z,994.18
2023-02-26T11:03:35.417Z,994.12
2023-02-26T11:04:35.416Z,994.15
2023-02-26T11:05:35.411Z,994.12
2023-02-26T11:06:35.396Z,994.09
2023-02-26T11:07:35.406Z,994.11
2023-02-26T11:08:35.381Z,994.09
2023-02-26T11:09:35.372Z,994.09
2023-02-26T11:10:35.371Z,994.07
2023-02-26T11:11:35.365Z,994.07
2023-02-26T11:12:35.359Z,994.12
2023-02-26T11:13:35.332Z,994.01
2023-02-26T11:14:35.343Z,994.03
2023-02-26T11:15:35.325Z,994.00
2023-02-26T11:16:35.306Z,993.93
2023-02-26T11:17:35.307Z,993.93
2023-02-26T11:18:35.299Z,993.93
2023-02-26T11:19:35.275Z,993.94
2023-02-26T11:20:35.252Z,994.05
2023-02-26T11:21:35.333Z,994.00
2023-02-26T11:22:35.227Z,993.95
2023-02-26T11:23:35.256Z,993.99
2023-02-26T11:24:35.215Z,994.04
2023-02-26T11:25:36.135Z,994.06
2023-02-26T11:26:36.204Z,994.04
2023-02-26T11:27:35.260Z,994.02
2023-02-26T11:28:35.199Z,994.09
2023-02-26T11:29:35.196Z,994.01
2023-02-26T11:30:35.179Z,994.01
2023-02-26T11:31:35.274Z,994.19
2023-02-26T11:32:35.175Z,994.11
2023-02-26T11:33:35.174Z,994.11
2023-02-26T11:34:35.131Z,994.11
2023-02-26T11:35:35.125Z,994.15
2023-02-26T11:36:35.109Z,994.21
2023-02-26T11:37:35.114Z,994.17
2023-02-26T11:38:35.133Z,994.11
2023-02-26T11:39:35.089Z,994.19
2023-02-26T11:40:35.064Z,994.09
2023-02-26T11:41:35.067Z,994.13
2023-02-26T11:42:35.058Z,994.23
2023-02-26T11:43:35.034Z,994.25
2023-02-26T11:44:35.040Z,994.26
2023-02-26T11:45:35.037Z,994.26
2023-02-26T11:46:35.081Z,994.19
2023-02-26T11:47:35.007Z,994.26
2023-02-26T11:48:34.997Z,994.22
2023-02-26T11:49:34.979Z,994.21
2023-02-26T11:50:34.984Z,994.22
2023-02-26T11:51:34.997Z,994.28
2023-02-26T11:52:34.984Z,994.11
2023-02-26T11:53:35.972Z,994.14
2023-02-26T11:54:34.929Z,994.14
2023-02-26T11:55:34.912Z,994.13
2023-02-26T11:56:35.936Z,994.20
2023-02-26T11:57:34.902Z,994.18
2023-02-26T11:58:34.894Z,994.14
2023-02-26T11:59:34.899Z,994.11
2023-02-26T12:00:34.912Z,994.10
2023-02-26T12:01:34.864Z,994.15
2023-02-26T12:02:34.904Z,994.09
2023-02-26T12:03:34.899Z,994.13
2023-02-26T12:04:34.836Z,994.10
2023-02-26T12:05:34.824Z,994.14
2023-02-26T12:06:34.824Z,994.16
2023-02-26T12:07:34.795Z,994.17
2023-02-26T12:08:34.790Z,994.14
2023-02-26T12:09:34.801Z,994.14
2023-02-26T12:10:34.768Z,994.19
2023-02-26T12:11:34.751Z,994.13
2023-02-26T12:12:34.753Z,994.13
2023-02-26T12:13:34.751Z,994.11
2023-02-26T12:14:34.736Z,994.15
2023-02-26T12:15:34.721Z,994.14
2023-02-26T12:16:34.730Z,994.11
2023-02-26T12:17:34.784Z,994.11
2023-02-26T12:18:34.708Z,994.08
2023-02-26T12:19:34.693Z,994.15
2023-02-26T12:20:34.668Z,994.08
2023-02-26T12:21:34.688Z,994.10
2023-02-26T12:22:34.676Z,994.07
2023-02-26T12:23:34.654Z,994.13
2023-02-26T12:24:34.691Z,994.05
2023-02-26T12:25:34.633Z,994.16
2023-02-26T12:26:34.689Z,994.06
2023-02-26T12:27:34.607Z,994.07
2023-02-26T12:28:34.604Z,994.01